createdAt,value
2022-09-29T00:00:12.210Z,7.38
2022-09-29T00:01:15.052Z,7.31
2022-09-29T00:02:18.131Z,7.31
2022-09-29T00:03:53.539Z,7.31
2022-09-29T00:04:56.277Z,7.31
2022-09-29T00:05:59.057Z,7.31
2022-09-29T00:07:33.715Z,7.31
2022-09-29T00:08:36.781Z,7.31
2022-09-29T00:09:39.714Z,7.31
2022-09-29T00:11:14.472Z,7.25
2022-09-29T00:12:17.551Z,7.25
2022-09-29T00:13:20.402Z,7.25
2022-09-29T00:14:55.916Z,7.25
2022-09-29T00:15:58.793Z,7.25
2022-09-29T00:17:02.309Z,7.25
2022-09-29T00:18:59.176Z,7.19
2022-09-29T00:20:02.033Z,7.19
2022-09-29T00:21:04.916Z,7.19
2022-09-29T00:22:39.752Z,7.19
2022-09-29T00:23:42.707Z,7.19
2022-09-29T00:24:45.571Z,7.19
2022-09-29T00:26:20.809Z,7.19
2022-09-29T00:27:23.800Z,7.19
2022-09-29T00:28:26.915Z,7.19
2022-09-29T00:30:01.644Z,7.19
2022-09-29T00:31:04.518Z,7.19
2022-09-29T00:32:08.101Z,7.19
2022-09-29T00:33:42.843Z,7.19
2022-09-29T00:34:46.098Z,7.19
2022-09-29T00:35:48.963Z,7.19
2022-09-29T00:37:23.992Z,7.19
2022-09-29T00:38:27.055Z,7.13
2022-09-29T00:39:30.003Z,7.13
2022-09-29T00:41:05.165Z,7.13
2022-09-29T00:42:07.926Z,7.13
2022-09-29T00:43:11.066Z,7.13
2022-09-29T00:44:46.105Z,7.13
2022-09-29T00:45:49.052Z,7.13
2022-09-29T00:46:52.410Z,7.13
2022-09-29T00:48:27.289Z,7.13
2022-09-29T00:49:30.056Z,7.06
2022-09-29T00:50:32.912Z,7.06
2022-09-29T00:52:07.447Z,7.06
2022-09-29T00:53:10.465Z,7.06
2022-09-29T00:54:19.114Z,7.06
2022-09-29T00:55:54.134Z,7.06
2022-09-29T00:56:56.873Z,7.06
2022-09-29T00:57:59.781Z,7.06
2022-09-29T00:59:34.531Z,7.00
2022-09-29T01:00:12.596Z,7.00
2022-09-29T01:01:16.223Z,7.00
2022-09-29T01:02:19.306Z,7.00
2022-09-29T01:03:54.299Z,7.00
2022-09-29T01:04:57.636Z,7.00
2022-09-29T01:06:00.354Z,7.00
2022-09-29T01:07:35.050Z,7.00
2022-09-29T01:08:37.770Z,7.00
2022-09-29T01:09:40.507Z,6.94
2022-09-29T01:11:15.071Z,6.94
2022-09-29T01:12:18.333Z,6.94
2022-09-29T01:13:21.155Z,6.94
2022-09-29T01:14:55.928Z,6.94
2022-09-29T01:15:59.154Z,6.88
2022-09-29T01:17:02.481Z,6.88
2022-09-29T01:18:37.059Z,6.88
2022-09-29T01:19:39.969Z,6.88
2022-09-29T01:20:49.487Z,6.88
2022-09-29T01:22:24.127Z,6.88
2022-09-29T01:23:26.874Z,6.81
2022-09-29T01:24:29.783Z,6.81
2022-09-29T01:26:05.052Z,6.81
2022-09-29T01:27:08.163Z,6.81
2022-09-29T01:28:11.127Z,6.81
2022-09-29T01:29:45.815Z,6.81
2022-09-29T01:30:48.806Z,6.81
2022-09-29T01:31:52.089Z,6.81
2022-09-29T01:33:27.085Z,6.81
2022-09-29T01:34:29.856Z,6.81
2022-09-29T01:35:32.810Z,6.81
2022-09-29T01:37:07.876Z,6.81
2022-09-29T01:38:11.004Z,6.81
2022-09-29T01:39:13.977Z,6.75
2022-09-29T01:40:48.962Z,6.75
2022-09-29T01:41:52.211Z,6.75
2022-09-29T01:42:55.167Z,6.75
2022-09-29T01:44:29.886Z,6.75
2022-09-29T01:45:32.830Z,6.75
2022-09-29T01:46:36.561Z,6.75
2022-09-29T01:48:11.207Z,6.75
2022-09-29T01:49:14.098Z,6.75
2022-09-29T01:50:17.209Z,6.75
2022-09-29T01:51:52.105Z,6.75
2022-09-29T01:52:55.077Z,6.75
2022-09-29T01:53:57.998Z,6.75
2022-09-29T01:55:33.081Z,6.75
2022-09-29T01:56:35.956Z,6.75
2022-09-29T01:57:38.890Z,6.75
2022-09-29T01:59:13.442Z,6.75
2022-09-29T02:00:12.471Z,6.75
2022-09-29T02:01:15.465Z,6.75
2022-09-29T02:02:18.858Z,6.75
2022-09-29T02:03:53.707Z,6.75
2022-09-29T02:04:56.565Z,6.75
2022-09-29T02:05:59.486Z,6.75
2022-09-29T02:07:34.261Z,6.75
2022-09-29T02:08:37.215Z,6.75
2022-09-29T02:09:40.216Z,6.75
2022-09-29T02:11:14.924Z,6.69
2022-09-29T02:12:17.626Z,6.69
2022-09-29T02:13:20.319Z,6.75
2022-09-29T02:14:55.317Z,6.69
2022-09-29T02:15:58.284Z,6.69
2022-09-29T02:17:01.703Z,6.69
2022-09-29T02:18:36.657Z,6.69
2022-09-29T02:19:44.584Z,6.69
2022-09-29T02:20:47.559Z,6.69
2022-09-29T02:22:22.650Z,6.69
2022-09-29T02:23:25.443Z,6.69
2022-09-29T02:24:28.531Z,6.69
2022-09-29T02:26:03.126Z,6.69
2022-09-29T02:27:06.099Z,6.69
2022-09-29T02:28:08.923Z,6.63
2022-09-29T02:29:43.624Z,6.63
2022-09-29T02:30:46.230Z,6.63
2022-09-29T02:31:49.300Z,6.63
2022-09-29T02:33:24.295Z,6.63
2022-09-29T02:34:27.261Z,6.63
2022-09-29T02:35:30.267Z,6.63
2022-09-29T02:37:05.258Z,6.63
2022-09-29T02:38:08.059Z,6.56
2022-09-29T02:39:10.711Z,6.56
2022-09-29T02:40:45.494Z,6.50
2022-09-29T02:41:48.556Z,6.50
2022-09-29T02:42:51.443Z,6.50
2022-09-29T02:44:26.272Z,6.50
2022-09-29T02:45:29.115Z,6.50
2022-09-29T02:46:32.486Z,6.50
2022-09-29T02:48:07.164Z,6.50
2022-09-29T02:49:10.110Z,6.50
2022-09-29T02:50:13.057Z,6.44
2022-09-29T02:51:47.761Z,6.44
2022-09-29T02:52:50.501Z,6.44
2022-09-29T02:53:53.279Z,6.44
2022-09-29T02:55:28.036Z,6.44
2022-09-29T02:56:31.041Z,6.44
2022-09-29T02:57:33.867Z,6.44
2022-09-29T02:59:08.398Z,6.44
2022-09-29T03:00:11.895Z,6.44
2022-09-29T03:01:15.080Z,6.44
2022-09-29T03:02:18.102Z,6.44
2022-09-29T03:03:53.140Z,6.44
2022-09-29T03:05:01.719Z,6.44
2022-09-29T03:06:04.675Z,6.38
2022-09-29T03:07:39.600Z,6.38
2022-09-29T03:08:42.506Z,6.38
2022-09-29T03:09:45.355Z,6.38
2022-09-29T03:11:19.988Z,6.38
2022-09-29T03:12:22.879Z,6.38
2022-09-29T03:13:25.939Z,6.38
2022-09-29T03:15:00.894Z,6.38
2022-09-29T03:16:03.746Z,6.31
2022-09-29T03:17:07.288Z,6.31
2022-09-29T03:18:45.199Z,6.31
2022-09-29T03:19:48.181Z,6.31
2022-09-29T03:20:51.149Z,6.31
2022-09-29T03:22:25.684Z,6.31
2022-09-29T03:23:28.542Z,6.31
2022-09-29T03:24:37.837Z,6.31
2022-09-29T03:26:12.844Z,6.31
2022-09-29T03:27:15.810Z,6.25
2022-09-29T03:28:18.631Z,6.25
2022-09-29T03:29:53.616Z,6.25
2022-09-29T03:30:56.495Z,6.25
2022-09-29T03:32:00.028Z,6.25
2022-09-29T03:33:34.891Z,6.25
2022-09-29T03:34:37.935Z,6.25
2022-09-29T03:35:44.334Z,6.25
2022-09-29T03:37:19.490Z,6.25
2022-09-29T03:38:22.526Z,6.25
2022-09-29T03:39:25.372Z,6.19
2022-09-29T03:41:00.270Z,6.19
2022-09-29T03:42:03.050Z,6.19
2022-09-29T03:43:05.931Z,6.19
2022-09-29T03:44:40.769Z,6.19
2022-09-29T03:45:43.666Z,6.19
2022-09-29T03:46:46.903Z,6.19
2022-09-29T03:48:21.861Z,6.19
2022-09-29T03:49:27.362Z,6.19
2022-09-29T03:50:30.172Z,6.19
2022-09-29T03:52:05.060Z,6.13
2022-09-29T03:53:07.923Z,6.13
2022-09-29T03:54:10.574Z,6.13
2022-09-29T03:55:45.171Z,6.13
2022-09-29T03:56:47.928Z,6.13
2022-09-29T03:57:50.922Z,6.13
2022-09-29T03:59:25.486Z,6.13
2022-09-29T04:00:12.621Z,6.19
2022-09-29T04:01:15.676Z,6.13
2022-09-29T04:02:19.109Z,6.13
2022-09-29T04:03:54.085Z,6.13
2022-09-29T04:04:56.736Z,6.13
2022-09-29T04:05:41.997Z,6.13
2022-09-29T04:06:45.143Z,6.13
2022-09-29T04:07:48.000Z,6.13
2022-09-29T04:09:22.979Z,6.06
2022-09-29T04:10:25.782Z,6.06
2022-09-29T04:11:28.759Z,6.00
2022-09-29T04:13:03.717Z,6.00
2022-09-29T04:14:11.852Z,5.94
2022-09-29T04:15:14.690Z,5.94
2022-09-29T04:16:49.802Z,5.94
2022-09-29T04:17:52.689Z,5.94
2022-09-29T04:18:55.463Z,5.88
2022-09-29T04:20:30.146Z,5.88
2022-09-29T04:21:32.960Z,5.88
2022-09-29T04:22:36.068Z,5.81
2022-09-29T04:24:10.811Z,5.81
2022-09-29T04:25:13.753Z,5.81
2022-09-29T04:26:16.860Z,5.81
2022-09-29T04:27:51.458Z,5.81
2022-09-29T04:28:54.233Z,5.75
2022-09-29T04:29:57.340Z,5.75
2022-09-29T04:31:31.952Z,5.75
2022-09-29T04:32:35.705Z,5.75
2022-09-29T04:33:38.613Z,5.75
2022-09-29T04:35:13.250Z,5.75
2022-09-29T04:36:22.141Z,5.75
2022-09-29T04:37:24.978Z,5.75
2022-09-29T04:38:59.568Z,5.75
2022-09-29T04:40:02.760Z,5.75
2022-09-29T04:41:05.944Z,5.75
2022-09-29T04:42:40.769Z,5.69
2022-09-29T04:43:43.395Z,5.69
2022-09-29T04:44:46.321Z,5.69
2022-09-29T04:46:21.749Z,5.69
2022-09-29T04:47:24.703Z,5.69
2022-09-29T04:48:27.760Z,5.69
2022-09-29T04:50:05.577Z,5.69
2022-09-29T04:51:08.440Z,5.69
2022-09-29T04:52:11.207Z,5.63
2022-09-29T04:53:45.883Z,5.63
2022-09-29T04:54:48.957Z,5.63
2022-09-29T04:55:51.831Z,5.63
2022-09-29T04:57:26.443Z,5.63
2022-09-29T04:58:29.374Z,5.56
2022-09-29T04:59:32.167Z,5.56
2022-09-29T05:00:12.412Z,5.56
2022-09-29T05:01:15.684Z,5.50
2022-09-29T05:02:18.925Z,5.50
2022-09-29T05:03:57.795Z,5.50
2022-09-29T05:05:00.548Z,5.50
2022-09-29T05:06:03.293Z,5.50
2022-09-29T05:07:38.004Z,5.50
2022-09-29T05:08:40.834Z,5.44
2022-09-29T05:09:43.487Z,5.44
2022-09-29T05:11:18.085Z,5.44
2022-09-29T05:12:20.754Z,5.44
2022-09-29T05:13:23.441Z,5.44
2022-09-29T05:14:57.830Z,5.44
2022-09-29T05:16:06.297Z,5.38
2022-09-29T05:17:09.605Z,5.38
2022-09-29T05:18:44.402Z,5.31
2022-09-29T05:19:47.244Z,5.25
2022-09-29T05:21:05.612Z,5.25
2022-09-29T05:22:57.971Z,5.25
2022-09-29T05:24:00.739Z,5.25
2022-09-29T05:25:03.630Z,5.25
2022-09-29T05:26:38.115Z,5.19
2022-09-29T05:27:44.703Z,5.19
2022-09-29T05:28:47.587Z,5.19
2022-09-29T05:30:22.568Z,5.19
2022-09-29T05:31:25.297Z,5.13
2022-09-29T05:32:28.848Z,5.13
2022-09-29T05:34:09.168Z,5.13
2022-09-29T05:35:11.838Z,5.13
2022-09-29T05:36:14.651Z,5.13
2022-09-29T05:37:49.337Z,5.13
2022-09-29T05:38:52.197Z,5.13
2022-09-29T05:39:55.449Z,5.13
2022-09-29T05:41:30.366Z,5.13
2022-09-29T05:42:38.149Z,5.19
2022-09-29T05:43:40.953Z,5.19
2022-09-29T05:45:15.741Z,5.19
2022-09-29T05:46:19.025Z,5.19
2022-09-29T05:47:21.895Z,5.19
2022-09-29T05:48:56.660Z,5.25
2022-09-29T05:49:59.480Z,5.25
2022-09-29T05:51:02.385Z,5.25
2022-09-29T05:52:40.934Z,5.25
2022-09-29T05:53:43.756Z,5.25
2022-09-29T05:54:46.565Z,5.25
2022-09-29T05:56:21.037Z,5.25
2022-09-29T05:57:29.243Z,5.25
2022-09-29T05:58:31.896Z,5.25
2022-09-29T06:00:12.071Z,5.25
2022-09-29T06:01:15.070Z,5.31
2022-09-29T06:02:18.563Z,5.31
2022-09-29T06:03:53.490Z,5.31
2022-09-29T06:04:56.375Z,5.31
2022-09-29T06:05:59.290Z,5.31
2022-09-29T06:07:33.993Z,5.38
2022-09-29T06:08:36.908Z,5.38
2022-09-29T06:09:39.864Z,5.38
2022-09-29T06:11:14.845Z,5.38
2022-09-29T06:12:21.568Z,5.38
2022-09-29T06:13:24.534Z,5.38
2022-09-29T06:14:59.381Z,5.44
2022-09-29T06:16:02.309Z,5.44
2022-09-29T06:17:05.631Z,5.44
2022-09-29T06:18:40.379Z,5.44
2022-09-29T06:19:44.868Z,5.50
2022-09-29T06:20:47.799Z,5.50
2022-09-29T06:22:22.290Z,5.50
2022-09-29T06:23:25.043Z,5.50
2022-09-29T06:24:27.815Z,5.50
2022-09-29T06:26:02.378Z,5.56
2022-09-29T06:27:10.162Z,5.56
2022-09-29T06:28:13.105Z,5.56
2022-09-29T06:29:47.915Z,5.56
2022-09-29T06:30:51.534Z,5.63
2022-09-29T06:31:54.632Z,5.63
2022-09-29T06:33:29.667Z,5.63
2022-09-29T06:34:32.405Z,5.63
2022-09-29T06:35:39.049Z,5.63
2022-09-29T06:37:13.469Z,5.63
2022-09-29T06:38:16.212Z,5.69
2022-09-29T06:39:19.050Z,5.69
2022-09-29T06:40:57.238Z,5.69
2022-09-29T06:42:00.311Z,5.69
2022-09-29T06:43:03.089Z,5.69
2022-09-29T06:44:37.844Z,5.69
2022-09-29T06:45:40.733Z,5.75
2022-09-29T06:46:44.051Z,5.75
2022-09-29T06:48:18.749Z,5.75
2022-09-29T06:49:21.921Z,5.75
2022-09-29T06:51:04.039Z,5.81
2022-09-29T06:53:10.686Z,5.81
2022-09-29T06:54:26.490Z,5.81
2022-09-29T06:55:29.340Z,5.81
2022-09-29T06:57:03.997Z,5.88
2022-09-29T06:58:06.846Z,5.88
2022-09-29T06:59:09.789Z,5.88
2022-09-29T07:00:11.772Z,5.94
2022-09-29T07:01:14.611Z,5.94
2022-09-29T07:02:17.982Z,5.94
2022-09-29T07:03:52.832Z,5.94
2022-09-29T07:04:56.216Z,6.00
2022-09-29T07:07:52.664Z,6.06
2022-09-29T07:08:59.116Z,6.06
2022-09-29T07:10:02.930Z,6.06
2022-09-29T07:11:37.506Z,6.13
2022-09-29T07:12:40.323Z,6.13
2022-09-29T07:13:43.011Z,6.13
2022-09-29T07:15:23.498Z,6.19
2022-09-29T07:16:26.393Z,6.19
2022-09-29T07:17:29.896Z,6.19
2022-09-29T07:19:04.391Z,6.19
2022-09-29T07:20:07.524Z,6.25
2022-09-29T07:21:10.399Z,6.25
2022-09-29T07:22:45.068Z,6.25
2022-09-29T07:23:47.810Z,6.19
2022-09-29T07:24:53.926Z,6.19
2022-09-29T07:27:04.112Z,6.25
2022-09-29T07:28:06.980Z,6.31
2022-09-29T07:29:14.953Z,6.31
2022-09-29T07:31:15.606Z,6.38
2022-09-29T07:32:33.216Z,6.38
2022-09-29T07:33:53.149Z,6.44
2022-09-29T07:35:27.889Z,6.50
2022-09-29T07:36:36.978Z,6.50
2022-09-29T07:37:39.835Z,6.56
2022-09-29T07:39:14.559Z,6.56
2022-09-29T07:40:17.935Z,6.63
2022-09-29T07:41:21.290Z,6.63
2022-09-29T07:42:56.037Z,6.63
2022-09-29T07:43:58.892Z,6.63
2022-09-29T07:45:02.092Z,6.69
2022-09-29T07:46:37.685Z,6.69
2022-09-29T07:47:40.729Z,6.69
2022-09-29T07:48:43.598Z,6.75
2022-09-29T07:50:18.643Z,6.75
2022-09-29T07:51:21.374Z,6.81
2022-09-29T07:52:24.122Z,6.88
2022-09-29T07:53:58.729Z,6.88
2022-09-29T07:55:07.428Z,6.94
2022-09-29T07:56:10.339Z,6.94
2022-09-29T07:57:44.952Z,6.94
2022-09-29T07:58:47.843Z,7.00
2022-09-29T07:59:53.347Z,7.00
2022-09-29T08:00:12.566Z,7.00
2022-09-29T08:01:15.397Z,7.00
2022-09-29T08:02:18.630Z,7.00
2022-09-29T08:03:53.873Z,7.06
2022-09-29T08:05:01.378Z,7.06
2022-09-29T08:06:06.163Z,7.06
2022-09-29T08:07:40.812Z,7.13
2022-09-29T08:08:53.548Z,7.19
2022-09-29T08:10:17.679Z,7.19
2022-09-29T08:12:17.460Z,7.25
2022-09-29T08:13:35.039Z,7.25
2022-09-29T08:14:40.756Z,7.25
2022-09-29T08:16:18.436Z,7.31
2022-09-29T08:17:22.006Z,7.31
2022-09-29T08:18:24.954Z,7.38
2022-09-29T08:19:59.854Z,7.38
2022-09-29T08:21:03.868Z,7.44
2022-09-29T08:22:06.995Z,7.44
2022-09-29T08:23:41.485Z,7.50
2022-09-29T08:24:44.230Z,7.50
2022-09-29T08:25:59.476Z,7.50
2022-09-29T08:28:02.053Z,7.50
2022-09-29T08:29:18.668Z,7.56
2022-09-29T08:30:35.266Z,7.56
2022-09-29T08:32:16.540Z,7.56
2022-09-29T08:33:19.529Z,7.63
2022-09-29T08:34:22.600Z,7.63
2022-09-29T08:35:57.112Z,7.69
2022-09-29T08:36:59.906Z,7.69
2022-09-29T08:38:07.925Z,7.69
2022-09-29T08:39:42.617Z,7.69
2022-09-29T08:40:45.463Z,7.75
2022-09-29T08:41:48.884Z,7.75
2022-09-29T08:43:35.427Z,7.81
2022-09-29T08:44:39.460Z,7.81
2022-09-29T08:46:00.743Z,7.81
2022-09-29T08:47:57.300Z,7.88
2022-09-29T08:49:33.187Z,7.88
2022-09-29T08:50:36.412Z,7.94
2022-09-29T08:52:25.997Z,7.94
2022-09-29T08:54:02.470Z,8.00
2022-09-29T08:55:29.241Z,8.00
2022-09-29T08:57:03.957Z,8.06
2022-09-29T08:58:06.701Z,8.13
2022-09-29T08:59:09.440Z,8.13
2022-09-29T09:00:11.977Z,8.13
2022-09-29T09:01:15.068Z,8.13
2022-09-29T09:02:18.580Z,8.13
2022-09-29T09:03:53.990Z,8.19
2022-09-29T09:04:56.703Z,8.19
2022-09-29T09:05:59.437Z,8.25
2022-09-29T09:07:34.659Z,8.31
2022-09-29T09:08:43.984Z,8.38
2022-09-29T09:09:47.316Z,8.38
2022-09-29T09:11:22.140Z,8.44
2022-09-29T09:12:24.992Z,8.50
2022-09-29T09:13:27.923Z,8.56
2022-09-29T09:15:02.576Z,8.63
2022-09-29T09:16:05.400Z,8.63
2022-09-29T09:17:08.786Z,8.63
2022-09-29T09:18:43.633Z,8.63
2022-09-29T09:19:46.629Z,8.63
2022-09-29T09:20:49.353Z,8.63
2022-09-29T09:22:24.080Z,8.69
2022-09-29T09:23:27.034Z,8.69
2022-09-29T09:24:35.533Z,8.69
2022-09-29T09:26:10.449Z,8.69
2022-09-29T09:27:13.429Z,8.69
2022-09-29T09:28:16.379Z,8.75
2022-09-29T09:29:51.047Z,8.75
2022-09-29T09:30:53.945Z,8.75
2022-09-29T09:31:57.166Z,8.75
2022-09-29T09:33:32.066Z,8.81
2022-09-29T09:34:48.843Z,8.88
2022-09-29T09:36:32.583Z,8.88
2022-09-29T09:38:24.246Z,8.94
2022-09-29T09:39:27.094Z,9.00
2022-09-29T09:40:29.966Z,9.06
2022-09-29T09:42:10.601Z,9.13
2022-09-29T09:43:13.413Z,9.19
2022-09-29T09:44:16.432Z,9.31
2022-09-29T09:45:51.176Z,9.38
2022-09-29T09:46:54.435Z,9.44
2022-09-29T09:47:57.033Z,9.56
2022-09-29T09:49:38.554Z,9.69
2022-09-29T09:50:41.348Z,9.69
2022-09-29T09:53:19.989Z,9.81
2022-09-29T09:54:22.801Z,9.81
2022-09-29T09:55:25.596Z,9.94
2022-09-29T09:57:00.059Z,10.00
2022-09-29T09:58:02.850Z,10.00
2022-09-29T09:59:05.670Z,10.06
2022-09-29T10:00:12.649Z,10.13
2022-09-29T10:01:15.657Z,10.19
2022-09-29T10:02:19.168Z,10.19
2022-09-29T10:03:54.442Z,10.25
2022-09-29T10:04:57.259Z,10.31
2022-09-29T10:06:06.662Z,10.38
2022-09-29T10:07:41.408Z,10.50
2022-09-29T10:08:44.411Z,10.63
2022-09-29T10:09:47.611Z,10.75
2022-09-29T10:11:39.409Z,11.00
2022-09-29T10:12:42.155Z,11.00
2022-09-29T10:13:51.200Z,11.00
2022-09-29T10:15:26.078Z,11.00
2022-09-29T10:16:29.114Z,10.94
2022-09-29T10:17:32.817Z,11.00
2022-09-29T10:19:07.757Z,11.06
2022-09-29T10:20:10.747Z,11.06
2022-09-29T10:21:13.566Z,11.13
2022-09-29T10:22:51.191Z,11.13
2022-09-29T10:23:55.033Z,11.13
2022-09-29T10:24:58.086Z,11.13
2022-09-29T10:26:32.642Z,11.25
2022-09-29T10:27:35.490Z,11.31
2022-09-29T10:28:38.299Z,11.31
2022-09-29T10:30:13.071Z,11.44
2022-09-29T10:31:16.472Z,11.50
2022-09-29T10:32:19.269Z,11.63
2022-09-29T10:33:57.484Z,11.63
2022-09-29T10:35:00.560Z,11.69
2022-09-29T10:36:03.515Z,11.75
2022-09-29T10:37:38.088Z,11.75
2022-09-29T10:38:40.715Z,11.88
2022-09-29T10:39:49.117Z,11.88
2022-09-29T10:41:23.950Z,12.00
2022-09-29T10:42:26.688Z,12.06
2022-09-29T10:43:29.591Z,12.13
2022-09-29T10:45:04.266Z,12.19
2022-09-29T10:46:06.982Z,12.25
2022-09-29T10:47:10.081Z,12.31
2022-09-29T10:48:44.870Z,12.38
2022-09-29T10:49:47.712Z,12.38
2022-09-29T10:50:50.688Z,12.44
2022-09-29T10:52:25.789Z,12.50
2022-09-29T10:53:28.494Z,12.56
2022-09-29T10:54:31.197Z,12.63
2022-09-29T10:56:05.986Z,12.69
2022-09-29T10:57:08.686Z,12.69
2022-09-29T10:58:11.516Z,12.75
2022-09-29T11:00:12.162Z,12.81
2022-09-29T11:01:15.107Z,12.88
2022-09-29T11:02:18.150Z,12.94
2022-09-29T11:03:53.336Z,13.06
2022-09-29T11:04:56.789Z,13.06
2022-09-29T11:05:59.925Z,13.13
2022-09-29T11:07:34.662Z,13.19
2022-09-29T11:08:37.489Z,13.25
2022-09-29T11:09:40.913Z,13.25
2022-09-29T11:11:15.740Z,13.31
2022-09-29T11:12:18.470Z,13.31
2022-09-29T11:13:21.188Z,13.38
2022-09-29T11:14:55.833Z,13.44
2022-09-29T11:15:58.635Z,13.50
2022-09-29T11:17:01.634Z,13.56
2022-09-29T11:18:36.804Z,13.69
2022-09-29T11:19:39.989Z,13.75
2022-09-29T11:20:42.896Z,13.81
2022-09-29T11:22:17.591Z,13.88
2022-09-29T11:23:20.541Z,13.88
2022-09-29T11:24:23.280Z,13.94
2022-09-29T11:25:58.006Z,13.94
2022-09-29T11:27:01.111Z,13.94
2022-09-29T11:28:03.884Z,13.94
2022-09-29T11:29:38.431Z,14.00
2022-09-29T11:30:41.322Z,14.00
2022-09-29T11:31:44.703Z,14.06
2022-09-29T11:33:22.313Z,14.06
2022-09-29T11:34:25.201Z,14.06
2022-09-29T11:35:28.087Z,14.13
2022-09-29T11:37:02.789Z,14.19
2022-09-29T11:38:05.591Z,14.31
2022-09-29T11:39:08.585Z,14.31
2022-09-29T11:40:43.441Z,14.38
2022-09-29T11:41:46.119Z,14.38
2022-09-29T11:42:49.030Z,14.38
2022-09-29T11:44:23.781Z,14.38
2022-09-29T11:45:26.661Z,14.38
2022-09-29T11:46:29.961Z,14.38
2022-09-29T11:48:04.562Z,14.38
2022-09-29T11:49:11.090Z,14.38
2022-09-29T11:50:13.816Z,14.38
2022-09-29T11:51:48.668Z,14.38
2022-09-29T11:52:51.425Z,14.38
2022-09-29T11:53:54.138Z,14.38
2022-09-29T11:55:35.668Z,14.38
2022-09-29T11:56:38.400Z,14.44
2022-09-29T11:57:41.187Z,14.50
2022-09-29T11:59:15.943Z,14.56
2022-09-29T12:00:11.944Z,14.63
2022-09-29T12:01:14.634Z,14.69
2022-09-29T12:02:17.458Z,14.69
2022-09-29T12:03:53.409Z,14.69
2022-09-29T12:05:01.439Z,14.69
2022-09-29T12:06:04.201Z,14.75
2022-09-29T12:07:39.123Z,14.88
2022-09-29T12:08:42.030Z,14.94
2022-09-29T12:09:45.118Z,14.94
2022-09-29T12:11:44.347Z,14.94
2022-09-29T12:13:20.841Z,15.00
2022-09-29T12:14:23.863Z,15.00
2022-09-29T12:16:04.018Z,15.06
2022-09-29T12:17:07.216Z,15.13
2022-09-29T12:18:10.270Z,15.13
2022-09-29T12:19:45.050Z,15.06
2022-09-29T12:20:47.742Z,15.06
2022-09-29T12:21:57.489Z,15.00
2022-09-29T12:23:32.353Z,15.00
2022-09-29T12:24:35.352Z,15.13
2022-09-29T12:25:38.164Z,15.19
2022-09-29T12:27:12.808Z,15.31
2022-09-29T12:28:15.419Z,15.44
2022-09-29T12:29:18.308Z,15.50
2022-09-29T12:30:53.020Z,15.56
2022-09-29T12:31:56.572Z,15.63
2022-09-29T12:33:05.084Z,15.63
2022-09-29T12:34:39.846Z,15.56
2022-09-29T12:35:42.645Z,15.63
2022-09-29T12:36:45.442Z,15.63
2022-09-29T12:38:19.993Z,15.56
2022-09-29T12:39:22.888Z,15.56
2022-09-29T12:40:25.990Z,15.56
2022-09-29T12:42:00.505Z,15.56
2022-09-29T12:43:03.458Z,15.63
2022-09-29T12:44:06.302Z,15.63
2022-09-29T12:45:46.180Z,15.63
2022-09-29T12:46:49.503Z,15.56
2022-09-29T12:47:52.234Z,15.56
2022-09-29T12:49:26.929Z,15.50
2022-09-29T12:50:29.748Z,15.50
2022-09-29T12:51:32.375Z,15.31
2022-09-29T12:53:09.174Z,15.25
2022-09-29T12:54:14.426Z,15.25
2022-09-29T12:55:17.769Z,15.19
2022-09-29T12:56:52.483Z,15.19
2022-09-29T12:57:55.343Z,15.25
2022-09-29T12:58:58.387Z,15.38
2022-09-29T13:00:12.308Z,15.50
2022-09-29T13:01:15.393Z,15.63
2022-09-29T13:02:18.949Z,15.81
2022-09-29T13:03:54.012Z,15.81
2022-09-29T13:05:01.825Z,15.75
2022-09-29T13:06:04.961Z,15.69
2022-09-29T13:07:39.635Z,15.63
2022-09-29T13:08:42.288Z,15.63
2022-09-29T13:09:45.403Z,15.69
2022-09-29T13:11:20.158Z,15.81
2022-09-29T13:12:23.115Z,15.88
2022-09-29T13:13:25.978Z,15.81
2022-09-29T13:15:00.835Z,15.75
2022-09-29T13:16:03.621Z,15.69
2022-09-29T13:17:06.944Z,15.69
2022-09-29T13:18:49.042Z,15.63
2022-09-29T13:20:48.963Z,15.75
2022-09-29T13:21:51.846Z,15.75
2022-09-29T13:23:26.461Z,15.75
2022-09-29T13:24:29.155Z,15.69
2022-09-29T13:25:38.736Z,15.56
2022-09-29T13:27:13.482Z,15.50
2022-09-29T13:28:16.311Z,15.38
2022-09-29T13:29:19.316Z,15.25
2022-09-29T13:30:54.105Z,15.19
2022-09-29T13:31:57.900Z,15.19
2022-09-29T13:33:00.910Z,15.13
2022-09-29T13:34:35.455Z,15.13
2022-09-29T13:35:38.409Z,15.13
2022-09-29T13:36:41.426Z,15.13
2022-09-29T13:38:15.909Z,15.13
2022-09-29T13:39:18.717Z,15.13
2022-09-29T13:40:21.568Z,15.06
2022-09-29T13:41:56.295Z,15.13
2022-09-29T13:42:59.165Z,15.19
2022-09-29T13:44:02.244Z,15.19
2022-09-29T13:45:37.151Z,15.38
2022-09-29T13:46:40.724Z,15.44
2022-09-29T13:47:43.368Z,15.44
2022-09-29T13:49:17.850Z,15.63
2022-09-29T13:50:20.586Z,15.75
2022-09-29T13:51:23.549Z,15.88
2022-09-29T13:52:57.978Z,16.06
2022-09-29T13:54:00.999Z,16.06
2022-09-29T13:55:03.986Z,16.13
2022-09-29T13:56:38.654Z,16.19
2022-09-29T13:57:41.518Z,16.19
2022-09-29T13:58:44.311Z,16.19
2022-09-29T14:00:12.063Z,16.25
2022-09-29T14:01:15.064Z,16.19
2022-09-29T14:02:18.628Z,16.19
2022-09-29T14:03:53.972Z,16.13
2022-09-29T14:04:56.706Z,16.13
2022-09-29T14:06:02.929Z,16.06
2022-09-29T14:08:09.657Z,16.00
2022-09-29T14:09:12.793Z,15.94
2022-09-29T14:10:16.940Z,15.88
2022-09-29T14:11:51.675Z,15.75
2022-09-29T14:12:54.492Z,15.63
2022-09-29T14:13:57.590Z,15.50
2022-09-29T14:15:32.580Z,15.31
2022-09-29T14:16:36.126Z,15.25
2022-09-29T14:17:39.108Z,15.19
2022-09-29T14:19:13.895Z,15.06
2022-09-29T14:20:16.857Z,15.06
2022-09-29T14:21:19.755Z,15.00
2022-09-29T14:22:54.629Z,14.94
2022-09-29T14:23:57.496Z,14.88
2022-09-29T14:25:05.647Z,14.81
2022-09-29T14:26:40.491Z,14.75
2022-09-29T14:27:43.411Z,14.69
2022-09-29T14:28:46.384Z,14.69
2022-09-29T14:30:20.941Z,14.63
2022-09-29T14:31:24.038Z,14.63
2022-09-29T14:32:30.041Z,14.56
2022-09-29T14:34:07.314Z,14.50
2022-09-29T14:35:10.251Z,14.50
2022-09-29T14:36:13.394Z,14.44
2022-09-29T14:37:48.408Z,14.44
2022-09-29T14:39:14.275Z,14.38
2022-09-29T14:40:28.162Z,14.31
2022-09-29T14:42:02.738Z,14.25
2022-09-29T14:43:05.435Z,14.19
2022-09-29T14:44:08.243Z,14.19
2022-09-29T14:45:42.965Z,14.13
2022-09-29T14:46:46.184Z,14.13
2022-09-29T14:47:49.054Z,14.06
2022-09-29T14:49:23.832Z,14.00
2022-09-29T14:50:29.611Z,14.00
2022-09-29T14:51:32.733Z,13.94
2022-09-29T14:53:07.264Z,13.88
2022-09-29T14:54:09.894Z,13.88
2022-09-29T14:55:12.828Z,13.88
2022-09-29T14:56:47.475Z,13.81
2022-09-29T14:57:50.490Z,13.81
2022-09-29T14:58:53.562Z,13.81
2022-09-29T15:00:12.617Z,13.81
2022-09-29T15:01:15.605Z,13.75
2022-09-29T15:02:18.428Z,13.75
2022-09-29T15:04:14.080Z,13.75
2022-09-29T15:05:17.358Z,13.75
2022-09-29T15:06:26.001Z,13.69
2022-09-29T15:08:00.760Z,13.69
2022-09-29T15:09:03.788Z,13.69
2022-09-29T15:10:07.667Z,13.69
2022-09-29T15:11:42.394Z,13.63
2022-09-29T15:12:45.115Z,13.63
2022-09-29T15:13:47.823Z,13.63
2022-09-29T15:15:27.917Z,13.63
2022-09-29T15:16:31.091Z,13.63
2022-09-29T15:17:34.128Z,13.63
2022-09-29T15:19:09.298Z,13.63
2022-09-29T15:20:12.234Z,13.63
2022-09-29T15:21:15.033Z,13.63
2022-09-29T15:22:49.685Z,13.63
2022-09-29T15:23:52.487Z,13.63
2022-09-29T15:24:55.672Z,13.63
2022-09-29T15:26:34.433Z,13.63
2022-09-29T15:27:37.235Z,13.63
2022-09-29T15:28:40.019Z,13.63
2022-09-29T15:30:14.400Z,13.63
2022-09-29T15:31:17.508Z,13.56
2022-09-29T15:32:20.900Z,13.56
2022-09-29T15:33:55.877Z,13.56
2022-09-29T15:34:58.895Z,13.56
2022-09-29T15:36:01.645Z,13.56
2022-09-29T15:37:36.384Z,13.56
2022-09-29T15:38:39.273Z,13.50
2022-09-29T15:39:42.466Z,13.50
2022-09-29T15:41:17.085Z,13.50
2022-09-29T15:42:26.648Z,13.50
2022-09-29T15:43:29.461Z,13.50
2022-09-29T15:45:04.834Z,13.44
2022-09-29T15:46:07.658Z,13.44
2022-09-29T15:47:11.294Z,13.44
2022-09-29T15:48:46.068Z,13.38
2022-09-29T15:49:49.004Z,13.38
2022-09-29T15:50:51.854Z,13.38
2022-09-29T15:52:26.537Z,13.31
2022-09-29T15:53:29.594Z,13.38
2022-09-29T15:54:32.519Z,13.31
2022-09-29T15:56:07.320Z,13.31
2022-09-29T15:57:12.417Z,13.25
2022-09-29T15:58:15.220Z,13.25
2022-09-29T15:59:50.394Z,13.19
2022-09-29T16:00:12.386Z,13.19
2022-09-29T16:01:15.445Z,13.13
2022-09-29T16:02:18.792Z,13.13
2022-09-29T16:03:54.217Z,13.13
2022-09-29T16:04:57.053Z,13.13
2022-09-29T16:05:43.107Z,13.13
2022-09-29T16:06:48.363Z,13.13
2022-09-29T16:07:51.391Z,13.13
2022-09-29T16:09:26.287Z,13.13
2022-09-29T16:10:29.662Z,13.06
2022-09-29T16:11:32.544Z,13.06
2022-09-29T16:13:07.337Z,13.06
2022-09-29T16:14:10.160Z,13.06
2022-09-29T16:15:13.136Z,13.00
2022-09-29T16:16:48.757Z,13.00
2022-09-29T16:17:52.522Z,12.94
2022-09-29T16:18:55.303Z,12.94
2022-09-29T16:20:30.056Z,12.94